Date,TemperatureHighF,TemperatureAvgF,TemperatureLowF,DewpointHighF,DewpointAvgF,DewpointLowF,HumidityHigh,HumidityAvg,HumidityLow,PressureMaxIn,PressureMinIn,WindSpeedMaxMPH,WindSpeedAvgMPH,GustSpeedMaxMPH,PrecipitationSumIn
2013-1-1,57,45,37,43,39,35,98,81,46,30.28,30.20,14,4,19,0.00
2013-1-2,59,47,37,39,34,30,91,62,40,30.25,30.12,10,4,14,0.00
2013-1-3,59,47,39,46,39,34,91,74,45,30.28,30.16,7,2,9,0.00
2013-1-4,60,47,39,46,40,37,94,76,46,30.29,30.17,7,2,12,0.00
2013-1-5,52,47,41,48,44,38,96,92,83,30.25,30.04,14,5,21,0.34
2013-1-6,56,49,45,50,47,44,96,90,72,30.20,30.05,12,3,16,0.01
2013-1-7,60,49,40,55,47,40,99,94,80,30.27,30.15,12,2,20,0.00
2013-1-8,60,49,41,55,48,41,100,96,81,30.25,30.13,9,2,13,0.01
2013-1-9,54,48,44,53,46,38,99,91,76,30.17,30.02,21,5,35,0.03
2013-1-10,52,46,40,43,39,36,86,77,68,30.23,30.09,20,7,29,0.00
2013-1-11,52,46,38,45,40,35,90,79,72,30.27,30.14,15,6,28,0.00
2013-1-12,51,42,34,41,36,33,94,80,55,30.27,30.14,7,2,9,0.00
2013-1-13,52,40,31,41,34,24,92,79,47,30.28,30.18,14,2,20,0.00
2013-1-14,54,43,34,39,31,22,93,65,38,30.40,30.24,8,2,11,0.00
2013-1-15,57,42,36,45,38,34,97,86,55,30.49,30.40,6,1,9,0.00
2013-1-16,58,43,34,47,38,32,94,83,60,30.45,30.28,8,1,11,0.00
2013-1-17,64,47,37,50,40,35,95,79,51,30.28,30.13,12,4,18,0.00
2013-1-18,68,53,43,43,38,34,85,60,33,30.21,30.11,9,3,11,0.00
2013-1-19,66,51,42,43,38,35,88,63,38,30.23,30.14,10,3,12,0.00
2013-1-20,67,51,42,45,39,35,88,66,33,30.22,30.10,9,2,11,0.00
2013-1-21,66,54,42,44,37,31,91,56,34,30.16,30.05,12,4,18,0.00
2013-1-22,65,56,47,45,39,34,78,56,36,30.10,29.98,12,4,18,0.00
2013-1-23,58,53,50,51,47,40,97,81,50,30.09,29.95,7,2,13,0.38
2013-1-24,61,54,50,57,53,50,98,94,83,30.19,30.07,8,2,12,0.01
2013-1-25,63,54,50,58,53,50,98,94,81,30.19,30.05,8,2,13,0.00
2013-1-26,55,52,47,52,48,44,99,87,73,30.10,30.00,20,8,30,0.00
2013-1-27,54,49,45,46,43,39,89,79,66,30.21,30.09,23,8,33,0.00
2013-1-28,55,50,46,48,45,40,93,85,76,30.31,30.19,25,7,31,0.00
2013-1-29,56,50,45,50,47,44,96,87,73,30.36,30.29,19,6,23,0.00
2013-1-30,64,49,40,53,45,40,98,89,68,30.34,30.26,7,1,8,0.01
2013-1-31,64,49,41,54,45,40,98,88,59,30.30,30.19,5,1,9,0.01